Bodensee (Kressbronn): 4,4°C  -  Teich der Wetterzentrale Bad Schussenried: 5,0°C  
22.01.2020Höhe
ü. NN
ZeitTemperatur (°C)Nieder-
schlag
Luft-
feuchte
Luft-
druck
Wind
StationaktuellMinimumMaximumaktuellMaximum
Aldingen654 m01:41-7,2-7,2 (07:47)-5,7 (15:22)0,0 l/m²92%1039,10,0 km/h (0 Bft) W-SW7,4 km/h (2 Bft) W-NW (13:16)
Allmendingen541 m01:40-2,9-3,0 (23:50)-2,9 (14:25)0,0 l/m²93%1037,94,8 km/h (1 Bft) O-NO20,9 km/h (4 Bft) O-NO (04:10)
Altshausen574 m01:40-4,2-4,2 (00:56)-3,8 (00:00)0,0 l/m²86%1036,66,4 km/h (2 Bft) O-NO8,0 km/h (2 Bft) O (00:39)
Amstetten-Reutti663 m01:40-3,7-3,7 (01:40)-3,5 (13:55)0,0 l/m²96%1037,49,7 km/h (2 Bft) O-SO30,6 km/h (5 Bft) O (02:10)
Amtzell-Grenis677 m01:40-5,1-5,2 (00:05)-4,9 (00:55)0,0 l/m²79%1039,01,6 km/h (1 Bft) O1,6 km/h (1 Bft) O (00:00)
Aulendorf570 m01:40-4,2-4,3 (01:18)-3,7 (00:00)0,0 l/m²94%1037,40,0 km/h (0 Bft) NO4,8 km/h (1 Bft) N-NO (01:25)
Bad Krozingen233 m01:40-3,0-3,1 (06:55)-2,1 (15:50)0,0 l/m²94%1038,51,6 km/h (1 Bft) N8,2 km/h (2 Bft) N-NO (16:50)
Bad Saulgau595 m01:40-4,1-4,1 (01:00)-3,9 (14:10)0,0 l/m²94%1036,60,0 km/h (0 Bft) S17,7 km/h (3 Bft) S-SW (05:45)
Bad Saulgau-Lampertsweiler627 m01:40-4,5-4,6 (01:35)-4,0 (00:00)0,0 l/m²91%1040,11,6 km/h (1 Bft) NO6,4 km/h (2 Bft) NO (01:35)
Bad Schussenried572 m01:40-3,6-3,6 (01:10)-3,2 (00:00)0,0 l/m²96%1036,20,0 km/h (0 Bft) NO3,2 km/h (1 Bft) NO (01:35)
Bergatreute615 m01:40-4,5-4,5 (01:40)-4,1 (00:45)0,0 l/m²97%1037,60,0 km/h (0 Bft) O-SO9,7 km/h (2 Bft) S-SO (00:45)
Biberach (Riss), Boehringer533 m01:50-3,4-3,5 (01:50)-2,9 (00:20)0,0 l/m²98%1035,34,0 km/h (1 Bft) N-NW11,5 km/h (2 Bft) S-SO (00:10)
Biberach (Riss), Realschule553 m01:40-3,8-3,9 (01:25)-3,6 (00:10)0,0 l/m²96%1038,83,2 km/h (1 Bft) SO11,3 km/h (2 Bft) O-SO (01:20)
Burgrieden523 m01:40-3,2-3,2 (00:35)-3,0 (00:00)0,0 l/m²90%1037,90,0 km/h (0 Bft) O8,0 km/h (2 Bft) O (00:00)
Burgrieden-Hochstetten510 m01:40-2,8-3,0 (01:05)-2,8 (02:00)0,0 l/m²94%1038,24,8 km/h (1 Bft) O-SO17,7 km/h (3 Bft) O (04:40)
Ebersbach579 m01:40-3,8-3,8 (00:30)-3,6 (00:00)0,0 l/m²96%1038,50,0 km/h (0 Bft) NO8,0 km/h (2 Bft) O (00:20)
Ebersbach-Boos605 m01:40-4,2-4,3 (00:45)-4,0 (00:10)0,0 l/m²97%1038,30,0 km/h (0 Bft) NO0,0 km/h (0 Bft) O-NO (00:00)
Ebersbach-Menzenweiler661 m01:40-4,4-4,4 (01:15)-4,1 (00:05)0,0 l/m²98%1038,54,8 km/h (1 Bft) NO8,0 km/h (2 Bft) O (00:25)
Erlenmoos645 m01:40-3,6-3,7 (01:05)-3,3 (00:00)0,0 l/m²93%1038,04,8 km/h (1 Bft) SO8,0 km/h (2 Bft) O (01:00)
Ertingen569 m01:40-3,9-3,9 (01:10)-3,6 (00:00)0,0 l/m²95%1037,86,4 km/h (2 Bft) N-NO6,4 km/h (2 Bft) N-NO (00:00)
Friedrichshafen405 m01:40-2,1-2,1 (08:20)-2,0 (14:45)0,0 l/m²91%1038,511,3 km/h (2 Bft) N-NO19,3 km/h (3 Bft) NO (22:05)
Günzburg443 m01:40-2,5-2,5 (01:20)-2,2 (00:05)0,0 l/m²90%1035,40,0 km/h (0 Bft) O-NO9,7 km/h (2 Bft) NO (00:35)
Hochdorf-Appendorf537 m01:40-3,9-3,9 (01:30)-3,6 (01:00)0,0 l/m²78%1037,63,2 km/h (1 Bft) N-NO11,3 km/h (2 Bft) N-NO (01:25)
Höchsten802 m01:40-5,8-6,3 (00:25)-4,7 (01:05)0,0 l/m²92%1036,10,0 km/h (0 Bft) NW6,4 km/h (2 Bft) N (00:00)
Horgenzell618 m01:40-4,7-4,7 (01:25)-4,4 (01:05)0,0 l/m²95%1036,73,2 km/h (1 Bft) N12,9 km/h (3 Bft) NO (00:10)
Hoßkirch632 m01:40-4,7-4,7 (00:55)-4,3 (00:00)0,0 l/m²95%1036,96,4 km/h (2 Bft) O-SO9,7 km/h (2 Bft) O (01:35)
Isny, Am Dreifingerbach695 m01:40-7,0-7,3 (01:30)-6,0 (00:00)0,0 l/m²93%1037,40,0 km/h (0 Bft) O-NO0,0 km/h (0 Bft) O-NO (01:40)
Isny, Weidachweg706 m01:40-7,0-7,1 (01:40)-6,2 (00:00)0,0 l/m²89%1039,63,2 km/h (1 Bft) N6,4 km/h (2 Bft) N (00:20)
Kappel-Grafenhausen163 m01:35-3,2-3,2 (07:50)-2,7 (14:50)0,0 l/m²92%1036,00,0 km/h (0 Bft) N14,5 km/h (3 Bft) N (15:20)
Kirchberg an der Iller584 m01:40-3,1-3,1 (20:10)-2,9 (02:00)0,0 l/m²87%1026,30,0 km/h (0 Bft) W-NW9,0 km/h (2 Bft) NW (04:50)
Kißlegg-Staibshof709 m01:40-4,8-5,0 (01:00)-4,8 (00:00)0,0 l/m²96%1038,00,0 km/h (0 Bft) O0,0 km/h (0 Bft) NO (00:00)
Kressbronn398 m01:42-2,1-3,0 (00:00)-2,1 (01:36)0,0 l/m²89%1037,20,0 km/h (0 Bft) N-NW9,7 km/h (2 Bft) N-NW (00:26)
Kreuzthal-Steinberg-Alpe930 m01:40-2,2-3,2 (01:00)-1,7 (01:20)0,0 l/m²100%1036,00,0 km/h (0 Bft) O4,0 km/h (1 Bft) O-SO (01:10)
Kreuzthal-Steinberggipfel1040 m01:401,90,7 (00:50)2,2 (01:40)-51%1036,02,9 km/h (1 Bft) N-NW11,9 km/h (3 Bft) W-SW (00:20)
Kristberg im Montafon (AT)1425 m01:415,04,3 (00:11)5,0 (01:40)0,0 l/m²31%1041,911,9 km/h (3 Bft) N-NO11,9 km/h (3 Bft) N (01:36)
Laupheim500 m01:40-3,3-3,3 (00:45)-3,1 (00:00)0,0 l/m²92%1037,36,4 km/h (2 Bft) O8,0 km/h (2 Bft) S-SO (00:05)
Leutkirch-Heggelbach670 m01:40-4,8-4,8 (01:30)-4,4 (00:00)0,0 l/m²94%1037,30,0 km/h (0 Bft) S-SO0,0 km/h (0 Bft) N (00:00)
Lindau-Insel420 m01:40-1,4-1,5 (08:25)-1,2 (14:35)0,0 l/m²88%1037,80,0 km/h (0 Bft) N-NO12,9 km/h (3 Bft) W (12:25)
Lindau-Stadt412 m01:40-1,7-1,8 (08:15)-1,7 (12:30)0,0 l/m²89%1038,03,2 km/h (1 Bft) NO12,9 km/h (3 Bft) W (13:00)
Maierhöfen im Allgäu733 m01:40-7,2-7,3 (00:50)-6,7 (00:00)0,0 l/m²92%1037,91,6 km/h (1 Bft) O-SO3,2 km/h (1 Bft) O-SO (01:05)
Maselheim543 m01:40-3,9-4,0 (01:40)-3,7 (14:05)0,0 l/m²94%1038,03,2 km/h (1 Bft) O22,5 km/h (4 Bft) O-SO (02:00)
Maselheim-Sulmingen548 m01:40-3,7-3,8 (00:00)-3,6 (02:00)0,0 l/m²95%1039,34,8 km/h (1 Bft) O17,7 km/h (3 Bft) O (03:45)
Mietingen-Baltringen528 m01:40-3,3-3,4 (00:05)-3,1 (00:45)0,0 l/m²92%1039,94,8 km/h (1 Bft) SO6,4 km/h (2 Bft) SO (00:00)
Mindelheim-Apfeltrach620 m01:41-3,5-3,5 (01:34)-3,2 (00:00)0,0 l/m²93%1038,03,2 km/h (1 Bft) S-SO8,0 km/h (2 Bft) SO (00:03)
Mittelbiberach577 m01:43-4,0-4,1 (00:21)-3,8 (01:00)0,0 l/m²94%1038,93,2 km/h (1 Bft) N8,0 km/h (2 Bft) O (00:10)
Neresheim552 m01:00-3,8-3,8 (01:00)-3,6 (00:00)0,0 l/m²98%1035,26,5 km/h (2 Bft) S6,5 km/h (2 Bft) S (01:00)
Neukirch570 m01:40-3,4-3,8 (07:55)-3,4 (15:05)0,0 l/m²94%1038,08,0 km/h (2 Bft) N-NO17,7 km/h (3 Bft) O-NO (06:20)
Ochsenhausen, Birkenstraße613 m01:40-3,6-3,6 (01:15)-3,3 (14:05)0,0 l/m²89%1038,30,0 km/h (0 Bft) NO0,0 km/h (0 Bft) N-NW (02:00)
Ochsenhausen, Unt. Wiesen575 m01:40-3,9-4,1 (00:30)-3,7 (00:00)0,0 l/m²95%1039,411,3 km/h (2 Bft) O-NO11,3 km/h (2 Bft) O (01:40)
Opfenbach-Göritz561 m01:40-3,9-4,2 (01:00)-3,9 (01:18)0,0 l/m²89%1036,20,0 km/h (0 Bft) S3,2 km/h (1 Bft) N (01:09)
Ostrach619 m01:40-3,3-3,3 (01:30)-2,9 (00:00)0,0 l/m²95%1036,23,2 km/h (1 Bft) O-NO8,0 km/h (2 Bft) O-NO (01:20)
Ravensburg, Goethestraße428 m01:50-2,8-2,9 (01:50)-2,3 (00:00)0,0 l/m²92%1037,56,4 km/h (2 Bft) NO11,3 km/h (2 Bft) NO (00:05)
Ravensburg, Springerstraße441 m01:40-2,5-2,6 (00:45)-2,2 (00:00)0,0 l/m²78%1035,20,0 km/h (0 Bft) W-SW2,3 km/h (1 Bft) W-SW (01:15)
Ravensburg-Wernsreute511 m01:40-3,6-3,6 (08:20)-3,1 (14:55)0,0 l/m²95%1040,64,8 km/h (1 Bft) NO24,1 km/h (4 Bft) N (20:10)
Reichenbach an der Fils343 m01:40-3,6-3,6 (01:30)-2,7 (00:00)0,0 l/m²87%1039,61,6 km/h (1 Bft) O-NO4,8 km/h (1 Bft) O (00:05)
Reinstetten559 m01:40-3,6-3,7 (01:10)-3,4 (00:05)0,0 l/m²95%1038,36,4 km/h (2 Bft) SO11,3 km/h (2 Bft) O (01:00)
Riedlingen530 m01:40-3,7-3,8 (01:05)-3,3 (00:00)0,0 l/m²94%1037,90,0 km/h (0 Bft) SO4,8 km/h (1 Bft) SO (01:35)
Rißtissen489 m01:40-2,4-2,4 (01:25)-2,1 (00:00)0,0 l/m²93%1035,30,0 km/h (0 Bft) NO6,4 km/h (2 Bft) O-NO (01:20)
Rottweil-Hausen681 m01:39-5,4-5,4 (00:36)-4,3 (00:00)0,0 l/m²90%1038,23,2 km/h (1 Bft) SW3,2 km/h (1 Bft) N (00:00)
Schemmerhofen520 m01:40-3,1-3,1 (00:20)-2,8 (00:00)0,0 l/m²96%1037,64,8 km/h (1 Bft) NO8,0 km/h (2 Bft) S-SO (00:15)
Silbertal im Montafon (AT)884 m01:39-2,4-3,3 (00:05)-2,5 (01:35)0,0 l/m²95%1041,80,0 km/h (0 Bft) NW1,8 km/h (1 Bft) N (00:06)
Tettnang466 m01:40-2,9-3,3 (00:00)-2,9 (01:30)0,0 l/m²92%1037,90,0 km/h (0 Bft) N-NO6,4 km/h (2 Bft) N-NO (01:00)
Tuttlingen662 m01:36-6,8-6,8 (01:11)-6,2 (00:01)0,0 l/m²77%1035,40,0 km/h (0 Bft) NO0,0 km/h (0 Bft) S-SW (00:01)
Tuttlingen, Möhringer-Vorstadt711 m01:40-5,8-5,8 (01:30)-5,2 (14:55)0,0 l/m²94%1037,50,0 km/h (0 Bft) O-SO12,9 km/h (3 Bft) O (02:05)
Ummendorf547 m01:40-3,7-4,0 (01:10)-3,6 (00:15)0,0 l/m²87%1039,19,7 km/h (2 Bft) O-NO11,3 km/h (2 Bft) O (01:05)
Ummendorf-Fischbach558 m01:40-4,1-4,2 (00:15)-4,0 (00:00)0,0 l/m²87%1038,84,8 km/h (1 Bft) O11,3 km/h (2 Bft) S (00:00)
Waldburg707 m01:40-5,0-5,0 (01:10)-4,9 (00:00)0,0 l/m²94%1037,20,0 km/h (0 Bft) N6,4 km/h (2 Bft) N (00:25)
Waltenhofen im Allgäu720 m01:05-6,7-6,7 (01:05)-6,2 (00:00)0,0 l/m²92%1038,10,0 km/h (0 Bft) SW12,9 km/h (3 Bft) SW (10:00)
Wangen, Hans-Schnitzer-Weg569 m01:40-3,2-3,6 (00:10)-3,2 (01:25)0,0 l/m²67%1036,40,0 km/h (0 Bft) N3,2 km/h (1 Bft) N (00:10)
Wangen, Südring548 m01:39-3,3-3,7 (01:00)-3,3 (01:29)0,0 l/m²92%1037,34,7 km/h (1 Bft) NO9,7 km/h (2 Bft) N (01:00)
Weingarten500 m01:40-3,3-3,4 (01:30)-2,9 (00:10)0,0 l/m²92%1037,93,2 km/h (1 Bft) S-SO9,7 km/h (2 Bft) O (00:30)
Winterlingen785 m01:15-8,5-8,5 (01:15)-7,2 (00:00)0,0 l/m²93%1037,81,8 km/h (1 Bft) NO2,5 km/h (1 Bft) S-SO (00:55)

Werbung
niederschlagsdatenbank | info | login - erfassung

Sollten Sie Interesse haben, an der Niederschlagsdatenbank teilzunehmen, finden Sie > hier < weitere Informationen.

Niederschlagsdaten der Station Bad Waldsee-Haisterkirch - Zur Spitzenkapelle 1

Josef Zell

Niederschlagsstation aufgenommen ins Stationsnetz der Wetterwarte Süd am 01.03.2009
Monat: .
Anmerkung:0,0 = nicht messbarer Niederschlag
 -  = kein Niederschlag

Stationsdaten

Höhe

640 m

Lage

Auf Google Maps ansehen

Beschreibung

Zwei für die Region ungewöhnlich massive Gewitterregen mit Überschwemmungen erheblichen Ausmaßes binnen weniger Jahre um die Jahrtausendwende lieferten die Idee zum Aufstellen einer Wetterstation. Die Station liegt nur unweit vom Ortskern (Kirche, Rathaus / Klostergebäude). Auf Grund einer Weststaulage am Fuße des Haidgauer Berges (754 m Grabener Höhe / Aussichtspunkt Alpen bis Bussen) registriere ich an meiner Hobbystation in der Regel mehr Niederschlag als die offizielle Wetterstation im etwa 15 km westlicher liegenden Bad Schussenried. Die Windrichtung wird oft durch den Höhenzug lokal verändert. (Ostwinde hier oft aus Nord) Die Daten werden im 12-Minuten Turnus erfasst. Die Mindestmenge zur Registrierung beträgt 0,3l/qm. Es handelt sich um einen selbstentleerenden Wippenmesser. Der Regenmesser ist Solarbetrieben und ohne Heizung. Auf Grund dessen sind die Niederschlagsmengen bei Schneefall in der Regel nahezu NULL. Bei Tauwetter jedoch werden die fehlenden Mengen ausgeglichen. Die Werte sind also im Winter mit diesem Hintergrundwissen zu interpretieren!!!

Der bereits in einer Urkunde des Klosters St. Gallen aus dem Jahre 805 erstmals erwähnte Ort ist das Hauptort des etwa 1400 Einwohner zählenden Haistergaus. Etwa 4 km südlich von Haisterkirch und etwa 60 m höher gelegen ist bei der "Schanze" der Übergang in das "Wurzacher Becken". Im Norden läuft das Tal sanft zum Rißtal hin aus. Gut 1 km westlich (Richtung Bad Waldsee) wird das Tal durch eine Eiszeitmoräne begrenzt. Diese ist zugleich die Europäische Wasserscheide Rhein / Donau. Das Wasser der zahlreichen Quellen des im Osten angrenzenden Haidgauer Höhenzuges (Entfernung ca. 1.5 km, Höhe gut 100 m über dem Ort) fließt in den Haisterbach, von da in die Umlach. Diese in die Riß und schließlich in die Donau. Landwirtschaftliche Nutzfläche sowie mehrere Ortschaften und Weiler prägen das Tal. Einen Besuch wert sind insbesonders die Pfarrkirche, das Klostergebäude (beinhaltet unter anderem eine der schönsten Grundschulen des Landes sowie das Rathaus) und die Wallfahrtskapelle St. Sebastian. Auch das nur 2 km entfernte Naherholungsgebiet "Tannenbühl" mit Kletterpark, Spielplatz und zahlreichen Wildgehegen sowie Lehrpfaden ist ein das gesamte Jahr über beliebtes Ausflugsziel.
< Juni 2019August 2019 >

Juli 2019

TagNiederschlagBemerkung
01.22,0
bis +33°C heiß nach 21°-Tropennacht. Sonnig, nachmittags im N wiederholt ziehende Gewitter, ab 20:00 sowie nachts mehrmals Gewitter vor Ort
Regen Gewitter
02.-
nach eher bewölktem Vormittag überwiegend sonnig und sommerlich
03.-
+12,5/+25,1°C, nach kühler Nacht erfrischender Sommertag - morgens eher bewölkt, nachmittags fast wolkenlos
04.-
+10/+27°C, wolkenloser Sommertag - abends Rchtung Vorarlberg Gewitterwolke
05.3,0
leicht bewölkt, doch überwiegend freundlich. Gegen Mitternacht im N Wetterleuchten, zu SA des 07. Gewitter
Regen Gewitter
06.0,7
Regen
07.27,0
+13/+24°C, zu Tagesbeginn leichtes Gewitter, 15:00 aus NW!! Gewitter mit Platzregen und Hagel bis 10 mm, Im nahegelegenen Tannenbühl sollen fast 40l Niederschlag bei dem nachmittäglichen Gewitter gefallen sein - ebenfalls mit Hagel. In Bad Waldsee kurzzeitig überflutete Straßen und Parkplätze
Regen Eiskörner Hagel Gewitter
08.1,4
Nachmittags leichter Regen
Regen
09.-
10.-
11.4,3
nachmittags und vor Ablesezeitpunkt am 12. Regenwetter
Regen
12.20,4
ganztags Regenwetter unterschiedlicher Intensität bis nachts 3:00
Regen
13.1,4
14:00 Schauer
Regen
14.-
15.-
16.-
17.-
18.-
19.-
20.18,5
bis zu 30°C, sonnig, abends gewittrig bewölkt, gegen 5:00 anhaltender Gewitterregen
Regen Gewitter
21.8,0
mehrere Gewitter, von 8:00 bis 14:00 meist sonnig und schwül, nachmittags erneut Gewitter
Regen Gewitter
22.-
+14/+29°C, hochsommerlich temperiert bei Sonnenschein mit zeitweise kompakten Wolken
23.-
+16/+31°C, nahezu wolkenloser Hitzetag
24.-
+16,8/+34°C, wolkenloser und für unsere Region sehr heißer Hitzetag
25.-
+18/+36°C, wolkenlos und für unsere Gegend ungewöhnlich heiß
26.8,5
+19,5/+34°C, weiterhin ungewöhnlich heiß, zum Abend Gewitterbewölkung + leichtes Donnern, zog nach NO ab, ab 4:00 Gewitter
Regen Gewitter
27.23,7
max +27°C, 19:45 Temperatursturz bei Gewitter mit ordentlich Regen, zuvor zu Tagesbeginn Gewitter, 11:00 Schauer mit 2l, nachmittas Sommer-Sonnenschein
Regen Gewitter
28.8,0
mehrmals Schauer unterschiedlicher Intensität
Regen
29.-
vormittags bewölkt, nachmittags freundlich, abends durchzeiehende Wolkenfelder
30.10,5
+15/+27°C, meist sonniger Sommertag, vor der Nacht aus W gewittrig bewölkt, Wetterleuchten, zu Tagesbeginn am 31.7. Regen
Regen
31.2,0
+15/+21,5°C,
Regen
Gesamt:159,4 
Die Spalten "Tag" und "Niederschlag" lassen sich durch Klicken auf den Spaltenkopf sortieren.
Die Angaben sind in l/m².

< Juni 2019August 2019 >


Monats- und Jahresniederschlag


Wetterbeobachtungen Legende:

  • Regen
  • Nieselregen
  • Schneeregen
  • Schnee
  • Graupel
  • Eiskörner
  • Hagel
  • Bodennebel
  • Gewitter
  • Nebelnässe
  • Schneegriesel

Grafische Darstellung der Niederschläge der Station Bad Waldsee-Haisterkirch Juli 2019

 
wetterstationen
wetterstationen
- derzeit 80 Stationen
niederschlagsdatenbank
wetterstationen
- kartographische Darstellung
niederschlagsdatenbank
niederschlagsstationen
- derzeit 111 Stationen
niederschlagsdatenbank
niederschlagsstationen
- kartographische Darstellung
 
 
Di. 7.30 Uhr - Mi. 7.30 Uhr (MEZ)
1.Gutenzell
Kleinser Berg 1
3,0 l/m²
 
  treffpunkt & service
--- Anzeigen --------------------------------
zugriffe:
insgesamt: 45.733.413
aktueller monat: 221.973
heute: 98
momentan online: 2
 
 
monatshöchstwert: 653.625
vorheriger monat: 318.382
gestern: 12.706
tageshöchstwert: 51.297
 
wetterwarte süd
 
konradstraße 3
info@wetterwarte-sued.com
roland roth
 
88427 bad schussenried